Time;durP1;ratioP1;P1;durP2;ratioP2;P2;SDS_P1;SDS_P2;PMS_P1;PMS_P2;Temp;Humidity;BMP_temperature;BMP_pressure;BME280_temperature;BME280_humidity;BME280_pressure;Samples;Min_cycle;Max_cycle;Signal;HPM_P1;HPM_P2
2022/09/15 00:02:17;;;;;;;0.60;0.15;;;;;;;19.68;100.00;99346.47;7391626;19;20029;-77
2022/09/15 00:04:43;;;;;;;0.70;0.68;;;;;;;19.63;100.00;99344.56;7391786;19;20014;-81
2022/09/15 00:07:10;;;;;;;0.25;0.05;;;;;;;19.52;100.00;99344.81;7390122;19;20507;-80
2022/09/15 00:09:36;;;;;;;0.10;0.10;;;;;;;19.61;100.00;99344.34;7391872;19;20344;-80
2022/09/15 00:12:02;;;;;;;0.65;0.63;;;;;;;19.45;100.00;99341.91;7392411;19;20022;-79
2022/09/15 00:14:28;;;;;;;0.40;0.20;;;;;;;19.26;100.00;99349.78;7391954;19;20022;-79
2022/09/15 00:16:54;;;;;;;0.10;0.05;;;;;;;19.26;100.00;99355.41;7388399;19;20416;-79
2022/09/15 00:19:21;;;;;;;1.02;0.22;;;;;;;19.18;100.00;99352.53;7389947;19;20050;-79
2022/09/15 00:21:47;;;;;;;21.77;1.02;;;;;;;19.11;100.00;99344.72;7393234;19;20007;-82
2022/09/15 00:24:13;;;;;;;0.75;0.60;;;;;;;19.20;100.00;99346.31;7392771;19;20018;-79
2022/09/15 00:26:39;;;;;;;0.30;0.30;;;;;;;19.34;100.00;99351.41;7389582;19;20014;-78
2022/09/15 00:29:05;;;;;;;1.40;0.63;;;;;;;19.06;100.00;99348.41;7387895;19;20018;-77
2022/09/15 00:31:32;;;;;;;0.63;0.63;;;;;;;19.06;100.00;99342.78;7388247;19;20100;-80
2022/09/15 00:34:03;;;;;;;1.25;0.40;;;;;;;19.33;100.00;99343.47;7389201;19;20468;-78
2022/09/15 00:36:30;;;;;;;0.20;0.20;;;;;;;19.49;100.00;99340.25;7387746;19;20014;-80
2022/09/15 00:38:56;;;;;;;0.73;0.20;;;;;;;19.48;100.00;99338.75;7387664;19;20595;-77
2022/09/15 00:41:23;;;;;;;2.25;0.73;;;;;;;19.40;100.00;99329.47;7388234;19;20018;-77
2022/09/15 00:43:54;;;;;;;1.75;0.95;;;;;;;19.36;100.00;99343.13;7391475;19;20020;-77
2022/09/15 00:46:37;;;;;;;0.40;0.25;;;;;;;19.35;100.00;99341.63;7387090;19;20505;-76
2022/09/15 00:49:21;;;;;;;0.10;0.10;;;;;;;19.40;100.00;99337.94;7384941;19;20014;-76
2022/09/15 00:52:12;;;;;;;0.68;0.35;;;;;;;19.60;100.00;99334.34;7390865;19;20023;-78
2022/09/15 00:54:48;;;;;;;0.38;0.20;;;;;;;19.56;100.00;99339.59;7392416;19;20037;-77
2022/09/15 00:57:37;;;;;;;0.52;0.13;;;;;;;19.38;100.00;99334.88;7388736;19;20015;-77
2022/09/15 01:00:10;;;;;;;6.03;0.80;;;;;;;19.55;100.00;99335.25;7385836;19;20011;-77
2022/09/15 01:02:38;;;;;;;2.20;0.77;;;;;;;19.45;100.00;99333.44;7389836;19;20018;-77
2022/09/15 01:05:10;;;;;;;6.60;0.50;;;;;;;19.89;100.00;99342.91;7385901;19;20092;-77
2022/09/15 01:07:52;;;;;;;0.10;0.10;;;;;;;20.04;100.00;99337.38;7385435;19;20022;-77
2022/09/15 01:10:25;;;;;;;4.00;0.30;;;;;;;19.65;100.00;99336.28;7384175;19;20019;-78
2022/09/15 01:12:55;;;;;;;3.33;1.02;;;;;;;19.61;100.00;99327.41;7387463;19;20018;-77
2022/09/15 01:15:30;;;;;;;1.08;0.10;;;;;;;19.43;100.00;99336.81;7388161;19;20027;-78
2022/09/15 01:18:14;;;;;;;0.40;0.40;;;;;;;19.58;100.00;99341.84;7386723;19;20022;-77
2022/09/15 01:21:02;;;;;;;0.15;0.10;;;;;;;19.61;100.00;99340.75;7389499;19;20373;-77
2022/09/15 01:23:49;;;;;;;8.43;0.45;;;;;;;19.57;100.00;99346.00;7387604;19;20134;-77
2022/09/15 01:26:34;;;;;;;5.07;0.82;;;;;;;19.50;100.00;99341.78;7386899;19;20435;-77
2022/09/15 01:29:22;;;;;;;0.63;0.30;;;;;;;19.66;100.00;99342.72;7383283;19;20019;-77
2022/09/15 01:35:03;;;;;;;1.88;0.30;;;;;;;19.75;100.00;99345.03;7387932;19;20022;-79
2022/09/15 01:37:35;;;;;;;0.30;0.30;;;;;;;19.82;100.00;99333.03;7387453;19;20050;-78
2022/09/15 01:40:03;;;;;;;10.63;1.05;;;;;;;19.86;100.00;99339.09;7384615;19;20035;-78
2022/09/15 01:42:31;;;;;;;0.35;0.35;;;;;;;19.68;100.00;99340.81;7386943;19;20038;-78
2022/09/15 01:45:05;;;;;;;0.90;0.57;;;;;;;19.56;100.00;99345.25;7387128;19;20341;-78
2022/09/15 01:47:34;;;;;;;2.28;1.13;;;;;;;19.22;100.00;99352.19;7387545;19;20018;-78
2022/09/15 01:50:09;;;;;;;0.10;0.10;;;;;;;19.40;100.00;99349.22;7386869;19;20006;-79
2022/09/15 01:52:38;;;;;;;1.60;0.40;;;;;;;19.24;100.00;99341.88;7389232;19;20485;-78
2022/09/15 01:55:30;;;;;;;0.10;0.00;;;;;;;18.91;100.00;99349.00;7384944;19;20034;-78
2022/09/15 01:57:58;;;;;;;5.00;0.57;;;;;;;18.76;100.00;99336.75;7386148;19;20393;-79
2022/09/15 02:00:24;;;;;;;0.80;0.43;;;;;;;18.58;100.00;99346.13;7384732;19;20488;-78
2022/09/15 02:03:03;;;;;;;0.20;0.10;;;;;;;18.55;100.00;99353.59;7389927;19;20033;-78
2022/09/15 02:05:38;;;;;;;2.45;0.20;;;;;;;18.42;100.00;99350.75;7386232;19;20066;-79
2022/09/15 02:08:14;;;;;;;4.47;0.32;;;;;;;18.61;100.00;99353.47;7383944;19;20030;-78
2022/09/15 02:11:13;;;;;;;0.68;0.10;;;;;;;18.43;100.00;99343.06;7384687;19;20027;-79
2022/09/15 02:14:02;;;;;;;0.10;0.00;;;;;;;18.51;100.00;99338.31;7381678;19;20034;-78
2022/09/15 02:16:34;;;;;;;1.20;0.50;;;;;;;18.15;100.00;99347.13;7384318;19;20018;-78
2022/09/15 02:19:20;;;;;;;0.77;0.77;;;;;;;18.17;100.00;99338.13;7385141;19;20015;-78
2022/09/15 02:21:53;;;;;;;0.10;0.10;;;;;;;18.07;100.00;99349.09;7387653;19;20023;-78
2022/09/15 02:24:27;;;;;;;0.20;0.15;;;;;;;17.93;100.00;99346.78;7382612;19;20627;-78
2022/09/15 02:26:54;;;;;;;1.40;0.15;;;;;;;18.08;100.00;99353.41;7385922;19;20082;-78
2022/09/15 02:29:25;;;;;;;0.20;0.10;;;;;;;18.14;100.00;99358.97;7382788;19;20015;-78
2022/09/15 02:31:54;;;;;;;0.82;0.45;;;;;;;18.15;100.00;99357.66;7386894;19;20131;-78
2022/09/15 02:34:25;;;;;;;0.10;0.10;;;;;;;18.15;100.00;99361.22;7381143;19;20488;-78
2022/09/15 02:36:52;;;;;;;2.10;0.22;;;;;;;18.05;100.00;99353.72;7385389;19;20021;-78
2022/09/15 02:39:22;;;;;;;12.98;0.40;;;;;;;18.04;100.00;99352.97;7384278;19;20023;-79
2022/09/15 02:41:48;;;;;;;0.82;0.60;;;;;;;18.08;100.00;99355.50;7384413;19;20017;-78
2022/09/15 02:44:14;;;;;;;1.10;0.30;;;;;;;17.92;100.00;99362.94;7384169;19;20031;-78
2022/09/15 02:46:41;;;;;;;1.35;0.68;;;;;;;17.40;100.00;99369.09;7383789;19;20018;-79
2022/09/15 02:49:07;;;;;;;0.20;0.20;;;;;;;17.23;100.00;99360.16;7383727;19;20010;-79
2022/09/15 02:51:33;;;;;;;0.22;0.22;;;;;;;17.23;100.00;99357.34;7391116;19;20549;-78
2022/09/15 02:53:59;;;;;;;0.50;0.10;;;;;;;17.35;100.00;99360.72;7388322;19;20014;-78
2022/09/15 02:56:25;;;;;;;0.82;0.25;;;;;;;17.21;100.00;99362.72;7392160;19;20049;-77
2022/09/15 02:58:51;;;;;;;1.05;0.38;;;;;;;17.12;100.00;99367.97;7387989;19;20018;-78
2022/09/15 03:01:18;;;;;;;0.20;0.20;;;;;;;17.22;100.00;99369.09;7391099;19;20053;-78
2022/09/15 03:03:45;;;;;;;0.10;0.10;;;;;;;17.23;100.00;99362.97;7391205;19;20022;-78
2022/09/15 03:06:19;;;;;;;0.35;0.35;;;;;;;17.32;100.00;99367.44;7392098;19;20054;-78
2022/09/15 03:08:55;;;;;;;0.85;0.45;;;;;;;17.33;100.00;99363.31;7389168;19;20010;-78
2022/09/15 03:11:23;;;;;;;0.10;0.10;;;;;;;17.27;100.00;99371.09;7391164;19;20018;-79
2022/09/15 03:13:53;;;;;;;1.42;0.30;;;;;;;17.30;100.00;99375.66;7387871;19;20018;-78
2022/09/15 03:16:19;;;;;;;0.75;0.45;;;;;;;17.55;100.00;99379.16;7392360;19;20041;-78
2022/09/15 03:18:45;;;;;;;6.03;0.47;;;;;;;17.41;100.00;99386.75;7390148;19;20018;-79
2022/09/15 03:21:13;;;;;;;3.83;0.75;;;;;;;17.39;100.00;99384.47;7394961;19;20017;-79
2022/09/15 03:23:41;;;;;;;2.58;0.52;;;;;;;17.34;100.00;99387.38;7389981;19;20022;-79
2022/09/15 03:26:08;;;;;;;2.70;0.40;;;;;;;17.31;100.00;99383.56;7392268;19;20021;-79
2022/09/15 03:28:35;;;;;;;0.50;0.10;;;;;;;17.37;100.00;99392.69;7390368;19;20022;-79
2022/09/15 03:31:02;;;;;;;0.10;0.10;;;;;;;17.40;100.00;99396.50;7390259;19;20017;-78
2022/09/15 03:33:28;;;;;;;0.17;0.13;;;;;;;17.31;100.00;99392.00;7393987;19;20026;-78
2022/09/15 03:35:55;;;;;;;0.32;0.32;;;;;;;17.24;100.00;99392.59;7390535;19;20018;-77
2022/09/15 03:38:21;;;;;;;0.20;0.20;;;;;;;17.20;100.00;99391.38;7389617;19;20043;-77
2022/09/15 03:40:58;;;;;;;0.30;0.00;;;;;;;17.10;100.00;99395.88;7388904;19;20362;-77
2022/09/15 03:43:25;;;;;;;0.50;0.20;;;;;;;17.13;100.00;99389.19;7395647;19;20011;-78
2022/09/15 03:45:53;;;;;;;5.82;0.57;;;;;;;17.14;100.00;99394.28;7390954;19;20033;-78
2022/09/15 03:48:19;;;;;;;5.35;0.73;;;;;;;17.01;100.00;99394.19;7389307;19;20028;-78
2022/09/15 03:50:46;;;;;;;0.10;0.00;;;;;;;17.41;100.00;99392.38;7391028;19;20051;-77
2022/09/15 03:53:12;;;;;;;3.03;0.35;;;;;;;17.44;100.00;99391.31;7393706;19;20015;-78
2022/09/15 03:55:38;;;;;;;0.40;0.30;;;;;;;17.56;100.00;99389.88;7389616;19;20018;-78
2022/09/15 03:58:04;;;;;;;0.10;0.10;;;;;;;17.51;100.00;99396.34;7388998;19;20026;-77
2022/09/15 04:00:31;;;;;;;0.20;0.20;;;;;;;17.47;100.00;99401.50;7390483;19;20014;-77
2022/09/15 04:02:57;;;;;;;0.10;0.10;;;;;;;17.54;100.00;99406.56;7391040;19;20077;-78
2022/09/15 04:05:23;;;;;;;0.70;0.70;;;;;;;17.57;100.00;99411.09;7388582;19;20018;-78
2022/09/15 04:07:49;;;;;;;5.05;0.55;;;;;;;17.59;100.00;99405.69;7389814;19;20014;-77
2022/09/15 04:10:16;;;;;;;0.10;0.10;;;;;;;17.82;100.00;99415.31;7388630;19;20445;-78
2022/09/15 04:12:43;;;;;;;1.08;0.85;;;;;;;17.82;100.00;99409.69;7392411;19;20014;-77
2022/09/15 04:15:09;;;;;;;1.08;0.47;;;;;;;17.82;100.00;99412.50;7389670;19;20018;-78
2022/09/15 04:17:35;;;;;;;0.40;0.20;;;;;;;17.74;100.00;99420.06;7388310;19;20515;-77
2022/09/15 04:20:02;;;;;;;5.32;0.22;;;;;;;17.74;100.00;99414.44;7388325;19;20025;-77
2022/09/15 04:22:31;;;;;;;0.10;0.05;;;;;;;17.78;100.00;99420.50;7389648;19;20041;-78
2022/09/15 04:24:57;;;;;;;10.00;0.43;;;;;;;17.79;100.00;99410.78;7386842;19;20014;-78
2022/09/15 04:27:23;;;;;;;0.68;0.47;;;;;;;17.82;100.00;99415.31;7392466;19;20499;-77
2022/09/15 04:29:51;;;;;;;0.40;0.10;;;;;;;17.71;100.00;99415.53;7387089;19;20026;-78
2022/09/15 04:32:18;;;;;;;2.20;0.30;;;;;;;17.73;100.00;99415.75;7390437;19;20026;-78
2022/09/15 04:34:44;;;;;;;6.18;1.00;;;;;;;17.67;100.00;99415.03;7387704;19;20022;-78
2022/09/15 04:37:11;;;;;;;0.15;0.10;;;;;;;17.71;100.00;99406.31;7389510;19;20023;-78
2022/09/15 04:39:37;;;;;;;0.20;0.10;;;;;;;17.82;100.00;99406.88;7386360;19;20055;-77
2022/09/15 04:42:05;;;;;;;0.40;0.40;;;;;;;18.21;100.00;99416.75;7388780;19;20037;-78
2022/09/15 04:44:32;;;;;;;0.25;0.10;;;;;;;18.29;100.00;99412.00;7388757;19;20014;-77
2022/09/15 04:46:58;;;;;;;0.70;0.10;;;;;;;18.38;100.00;99417.22;7388960;19;20109;-78
2022/09/15 04:49:25;;;;;;;0.80;0.25;;;;;;;18.30;100.00;99414.25;7385729;19;20011;-78
2022/09/15 04:51:52;;;;;;;0.10;0.10;;;;;;;18.35;100.00;99416.22;7392096;19;20444;-77
2022/09/15 04:54:18;;;;;;;0.10;0.10;;;;;;;17.75;100.00;99415.97;7385777;19;20026;-77
2022/09/15 04:56:45;;;;;;;0.10;0.10;;;;;;;17.88;100.00;99412.44;7386925;19;20026;-77
2022/09/15 04:59:16;;;;;;;0.20;0.10;;;;;;;18.12;100.00;99421.50;7383939;19;20078;-77
2022/09/15 05:01:42;;;;;;;0.10;0.10;;;;;;;17.82;100.00;99415.31;7389566;19;20094;-77
2022/09/15 05:04:09;;;;;;;0.10;0.10;;;;;;;17.85;100.00;99416.31;7386611;19;20018;-77
2022/09/15 05:06:35;;;;;;;0.20;0.20;;;;;;;17.92;100.00;99419.28;7390464;19;20014;-77
2022/09/15 05:09:04;;;;;;;0.80;0.35;;;;;;;18.23;100.00;99416.97;7386856;19;20685;-77
2022/09/15 05:11:31;;;;;;;0.47;0.35;;;;;;;18.02;100.00;99426.00;7388173;19;20472;-77
2022/09/15 05:13:59;;;;;;;1.52;0.55;;;;;;;17.77;100.00;99423.88;7381224;19;20015;-77
2022/09/15 05:16:27;;;;;;;5.25;0.28;;;;;;;17.95;100.00;99423.81;7386087;19;20018;-77
2022/09/15 05:19:01;;;;;;;0.20;0.10;;;;;;;17.94;100.00;99422.31;7386694;19;20025;-77
2022/09/15 05:21:28;;;;;;;0.80;0.20;;;;;;;17.77;100.00;99430.28;7391572;19;20082;-78
2022/09/15 05:23:55;;;;;;;4.68;0.43;;;;;;;17.62;100.00;99429.97;7385716;19;20074;-78
2022/09/15 05:26:24;;;;;;;0.10;0.10;;;;;;;17.80;100.00;99434.06;7387821;19;20490;-78
2022/09/15 05:28:50;;;;;;;0.52;0.52;;;;;;;17.99;100.00;99429.94;7386962;19;20025;-77
2022/09/15 05:31:20;;;;;;;0.65;0.20;;;;;;;18.09;100.00;99433.09;7387445;19;20014;-78
2022/09/15 05:33:48;;;;;;;1.50;0.68;;;;;;;18.21;100.00;99439.31;7384529;19;20015;-78
2022/09/15 05:36:19;;;;;;;0.10;0.10;;;;;;;18.35;100.00;99438.03;7385317;19;20015;-78
2022/09/15 05:38:45;;;;;;;8.68;0.75;;;;;;;18.59;100.00;99443.50;7383535;19;20106;-77
2022/09/15 05:41:15;;;;;;;0.65;0.32;;;;;;;18.62;100.00;99428.34;7385025;19;20022;-78
2022/09/15 05:43:43;;;;;;;4.20;0.30;;;;;;;18.48;100.00;99435.25;7385832;19;20014;-78
2022/09/15 05:46:09;;;;;;;0.30;0.30;;;;;;;18.54;100.00;99428.22;7385963;19;20034;-77
2022/09/15 05:48:36;;;;;;;0.10;0.10;;;;;;;18.51;100.00;99434.19;7385847;19;20038;-78
2022/09/15 05:51:03;;;;;;;2.33;0.40;;;;;;;18.47;100.00;99442.22;7389680;19;20026;-78
2022/09/15 05:53:31;;;;;;;0.20;0.10;;;;;;;18.09;100.00;99428.22;7387107;19;20750;-78
2022/09/15 05:56:00;;;;;;;7.93;0.52;;;;;;;18.22;100.00;99438.00;7388189;19;20026;-78
2022/09/15 05:58:26;;;;;;;4.63;0.65;;;;;;;18.31;100.00;99443.22;7385377;19;20479;-78
2022/09/15 06:00:53;;;;;;;9.95;0.95;;;;;;;18.44;100.00;99437.59;7387357;19;20035;-78
2022/09/15 06:03:20;;;;;;;5.65;0.30;;;;;;;18.54;100.00;99450.00;7390174;19;20091;-78
2022/09/15 06:05:46;;;;;;;4.78;0.28;;;;;;;18.53;100.00;99448.50;7385684;19;20014;-79
2022/09/15 06:08:13;;;;;;;6.55;0.65;;;;;;;18.58;100.00;99444.81;7384929;19;20015;-79
2022/09/15 06:10:39;;;;;;;0.15;0.10;;;;;;;18.47;100.00;99450.66;7385355;19;20015;-79
2022/09/15 06:13:06;;;;;;;0.60;0.40;;;;;;;18.50;100.00;99443.94;7387990;19;20022;-79
2022/09/15 06:15:32;;;;;;;0.57;0.20;;;;;;;18.75;100.00;99436.81;7384036;19;20052;-78
2022/09/15 06:17:59;;;;;;;0.20;0.20;;;;;;;18.67;100.00;99439.50;7385445;19;20022;-79
2022/09/15 06:20:25;;;;;;;0.30;0.20;;;;;;;18.39;100.00;99444.09;7387547;19;20015;-79
2022/09/15 06:22:55;;;;;;;2.13;0.68;;;;;;;18.48;100.00;99443.72;7387585;19;20018;-79
2022/09/15 06:25:21;;;;;;;0.20;0.20;;;;;;;18.65;100.00;99449.81;7385140;19;20018;-79
2022/09/15 06:27:49;;;;;;;11.23;0.95;;;;;;;18.52;100.00;99446.97;7393398;19;21139;-79
2022/09/15 06:30:16;;;;;;;0.60;0.15;;;;;;;18.28;100.00;99447.13;7392532;19;20491;-79
2022/09/15 06:32:42;;;;;;;0.20;0.20;;;;;;;18.40;100.00;99454.09;7394908;19;20015;-78
2022/09/15 06:35:08;;;;;;;0.68;0.20;;;;;;;18.44;100.00;99454.53;7394047;19;20499;-79
2022/09/15 06:37:35;;;;;;;0.10;0.10;;;;;;;18.73;100.00;99453.53;7395745;19;20047;-78
2022/09/15 06:40:03;;;;;;;2.08;0.30;;;;;;;18.74;100.00;99463.50;7393398;19;20603;-79
2022/09/15 06:42:29;;;;;;;1.55;0.68;;;;;;;18.84;100.00;99475.88;7394275;19;20026;-79
2022/09/15 06:44:55;;;;;;;1.02;0.20;;;;;;;18.86;100.00;99470.47;7392851;19;20062;-79
2022/09/15 06:47:21;;;;;;;0.93;0.43;;;;;;;18.71;100.00;99482.25;7393465;19;20010;-79
2022/09/15 06:49:47;;;;;;;2.85;1.67;;;;;;;18.77;100.00;99474.47;7391391;19;20075;-78
2022/09/15 06:52:13;;;;;;;0.20;0.10;;;;;;;18.61;100.00;99483.22;7393365;19;20024;-79
2022/09/15 06:54:39;;;;;;;1.17;0.30;;;;;;;18.79;100.00;99471.09;7392291;19;20081;-79
2022/09/15 06:57:05;;;;;;;1.13;0.28;;;;;;;19.02;100.00;99477.81;7394148;19;20019;-78
2022/09/15 06:59:31;;;;;;;4.90;0.65;;;;;;;19.10;100.00;99473.03;7390553;19;20495;-78
2022/09/15 07:01:58;;;;;;;0.40;0.30;;;;;;;18.95;100.00;99486.19;7390863;19;20021;-79
2022/09/15 07:04:24;;;;;;;0.30;0.20;;;;;;;19.21;100.00;99489.03;7391802;19;20018;-79
2022/09/15 07:06:50;;;;;;;2.92;0.30;;;;;;;19.18;100.00;99495.75;7389953;19;20138;-79
2022/09/15 07:09:16;;;;;;;2.38;0.20;;;;;;;18.81;100.00;99491.06;7388543;19;20018;-79
2022/09/15 07:11:42;;;;;;;3.20;1.00;;;;;;;18.94;100.00;99482.59;7392408;19;20574;-78
2022/09/15 07:14:10;;;;;;;2.17;0.22;;;;;;;18.82;100.00;99490.50;7388683;19;20018;-79
2022/09/15 07:16:36;;;;;;;3.92;0.55;;;;;;;18.87;100.00;99500.19;7392183;19;20033;-79
2022/09/15 07:19:04;;;;;;;0.10;0.10;;;;;;;18.79;100.00;99499.31;7387670;19;20102;-79
2022/09/15 07:21:31;;;;;;;0.38;0.28;;;;;;;18.98;100.00;99494.31;7393263;19;20288;-79
2022/09/15 07:23:58;;;;;;;0.52;0.45;;;;;;;18.67;100.00;99509.25;7389444;19;20031;-79
2022/09/15 07:26:27;;;;;;;1.02;0.10;;;;;;;19.34;100.00;99514.41;7393956;19;20732;-79
2022/09/15 07:28:58;;;;;;;2.83;0.38;;;;;;;19.53;100.00;99506.59;7391629;19;20362;-79
2022/09/15 07:31:26;;;;;;;3.75;0.55;;;;;;;19.83;100.00;99509.03;7394441;19;20018;-79
2022/09/15 07:33:53;;;;;;;0.25;0.25;;;;;;;20.14;100.00;99499.56;7387188;19;20018;-78
2022/09/15 07:36:20;;;;;;;2.72;0.32;;;;;;;20.04;100.00;99504.94;7389126;19;20018;-79
2022/09/15 07:38:48;;;;;;;9.38;0.73;;;;;;;20.40;100.00;99505.88;7385618;19;20019;-79
2022/09/15 07:41:17;;;;;;;0.65;0.30;;;;;;;20.22;100.00;99511.75;7390467;19;20082;-79
2022/09/15 07:43:52;;;;;;;0.55;0.20;;;;;;;20.63;100.00;99511.75;7389796;19;20052;-79
2022/09/15 07:46:19;;;;;;;0.40;0.25;;;;;;;20.58;100.00;99526.78;7390423;19;20424;-78
2022/09/15 07:48:48;;;;;;;0.47;0.22;;;;;;;20.78;100.00;99526.00;7388450;19;20045;-79
2022/09/15 07:51:15;;;;;;;0.10;0.10;;;;;;;20.65;100.00;99526.09;7391660;19;20015;-78
2022/09/15 07:53:42;;;;;;;2.17;0.52;;;;;;;20.83;100.00;99525.13;7387503;19;20033;-78
2022/09/15 07:56:09;;;;;;;4.75;0.85;;;;;;;20.69;100.00;99529.31;7386678;19;20015;-78
2022/09/15 07:58:35;;;;;;;3.08;1.05;;;;;;;21.20;100.00;99531.63;7388197;19;20040;-79
2022/09/15 08:01:07;;;;;;;0.35;0.25;;;;;;;21.04;100.00;99528.69;7389392;19;20515;-79
2022/09/15 08:03:33;;;;;;;6.93;1.00;;;;;;;21.00;100.00;99533.16;7392019;19;20402;-79
2022/09/15 08:06:02;;;;;;;8.98;0.77;;;;;;;21.01;100.00;99529.75;7388480;19;20022;-79
2022/09/15 08:08:29;;;;;;;9.85;0.35;;;;;;;20.89;100.00;99522.88;7390422;19;20078;-79
2022/09/15 08:10:55;;;;;;;0.10;0.00;;;;;;;20.92;100.00;99515.38;7391105;19;20708;-79
2022/09/15 08:13:23;;;;;;;0.10;0.00;;;;;;;20.81;100.00;99522.06;7391463;19;20410;-79
2022/09/15 08:15:49;;;;;;;2.08;0.40;;;;;;;20.62;100.00;99532.09;7390629;19;20546;-79
2022/09/15 08:18:15;;;;;;;2.30;0.52;;;;;;;20.39;100.00;99524.16;7386136;19;20018;-79
2022/09/15 08:20:42;;;;;;;0.65;0.30;;;;;;;20.21;100.00;99527.19;7388981;19;20010;-79
2022/09/15 08:23:10;;;;;;;0.35;0.10;;;;;;;20.17;100.00;99529.56;7393038;19;20385;-79
2022/09/15 08:25:38;;;;;;;1.80;0.28;;;;;;;19.98;100.00;99537.47;7389260;19;20028;-79
2022/09/15 08:28:04;;;;;;;5.18;0.43;;;;;;;19.84;100.00;99538.81;7390510;19;20018;-79
2022/09/15 08:30:30;;;;;;;2.30;0.30;;;;;;;19.82;100.00;99538.56;7387170;19;20014;-80
2022/09/15 08:32:57;;;;;;;0.43;0.40;;;;;;;19.89;100.00;99540.75;7389608;19;20019;-79
2022/09/15 08:35:23;;;;;;;0.77;0.15;;;;;;;19.95;100.00;99541.38;7388884;19;20122;-79
2022/09/15 08:37:52;;;;;;;10.13;0.57;;;;;;;20.09;100.00;99537.22;7387920;19;20041;-81
2022/09/15 08:40:28;;;;;;;0.10;0.10;;;;;;;20.10;100.00;99550.03;7387017;19;20018;-78
2022/09/15 08:42:58;;;;;;;0.10;0.10;;;;;;;20.30;100.00;99552.16;7392536;19;20037;-78
2022/09/15 08:45:32;;;;;;;0.20;0.20;;;;;;;20.37;100.00;99557.91;7389519;19;20018;-79
2022/09/15 08:48:03;;;;;;;4.85;0.40;;;;;;;20.42;100.00;99559.81;7387802;19;20372;-79
2022/09/15 08:50:38;;;;;;;0.25;0.08;;;;;;;20.28;100.00;99554.78;7388287;19;20349;-79
2022/09/15 08:53:30;;;;;;;1.52;0.30;;;;;;;20.56;100.00;99569.00;7391900;19;20014;-79
2022/09/15 08:56:03;;;;;;;0.38;0.30;;;;;;;20.52;100.00;99567.84;7386815;19;20051;-79
2022/09/15 08:58:36;;;;;;;1.80;0.35;;;;;;;20.47;100.00;99569.50;7387713;19;20041;-79
2022/09/15 09:01:23;;;;;;;0.47;0.47;;;;;;;20.51;100.00;99564.25;7388632;19;20019;-79
2022/09/15 09:04:08;;;;;;;7.63;0.30;;;;;;;21.09;100.00;99581.56;7386169;19;20046;-79
2022/09/15 09:07:25;;;;;;;0.10;0.10;;;;;;;21.39;100.00;99581.03;7387421;19;20026;-79
2022/09/15 09:10:00;;;;;;;0.50;0.20;;;;;;;21.26;100.00;99577.53;7383294;19;20082;-79
2022/09/15 09:12:48;;;;;;;0.22;0.22;;;;;;;20.71;100.00;99577.66;7388373;19;20023;-79
2022/09/15 09:15:17;;;;;;;0.50;0.30;;;;;;;21.26;100.00;99583.19;7385319;19;20049;-79
2022/09/15 09:18:02;;;;;;;1.08;0.10;;;;;;;21.58;100.00;99583.59;7387611;19;20019;-80
2022/09/15 09:20:52;;;;;;;0.20;0.20;;;;;;;21.26;100.00;99577.53;7389312;19;20023;-79
2022/09/15 09:23:22;;;;;;;0.22;0.10;;;;;;;21.85;100.00;99582.06;7389786;19;20022;-79
2022/09/15 09:25:48;;;;;;;4.25;0.45;;;;;;;22.19;100.00;99587.47;7384605;19;20625;-79
2022/09/15 09:28:21;;;;;;;1.63;0.40;;;;;;;22.14;100.00;99579.88;7387110;19;20361;-79
2022/09/15 09:30:47;;;;;;;0.95;0.13;;;;;;;22.36;100.00;99585.63;7387101;19;20020;-80
2022/09/15 09:33:24;;;;;;;0.82;0.38;;;;;;;22.51;100.00;99590.59;7388051;19;20037;-79
2022/09/15 09:35:51;;;;;;;0.50;0.20;;;;;;;22.95;100.00;99583.47;7384768;19;20014;-79
2022/09/15 09:38:29;;;;;;;0.10;0.00;;;;;;;22.83;100.00;99599.34;7386371;19;20310;-79
2022/09/15 09:40:55;;;;;;;1.20;0.40;;;;;;;22.91;100.00;99588.78;7389671;19;20504;-79
2022/09/15 09:43:21;;;;;;;5.00;0.28;;;;;;;22.72;100.00;99599.00;7390503;19;20011;-79
2022/09/15 09:45:48;;;;;;;0.40;0.08;;;;;;;23.02;100.00;99599.00;7386161;19;20022;-79
2022/09/15 09:48:20;;;;;;;2.80;0.50;;;;;;;23.18;100.00;99597.66;7389111;19;20022;-79
2022/09/15 09:50:48;;;;;;;0.10;0.00;;;;;;;23.26;100.00;99598.41;7390062;19;20135;-77
2022/09/15 09:53:35;;;;;;;0.13;0.13;;;;;;;23.20;100.00;99592.91;7387751;19;20018;-79
2022/09/15 09:56:36;;;;;;;0.52;0.28;;;;;;;;;;7387192;19;20014;-79
2022/09/15 09:59:02;;;;;;;0.20;0.10;;;;;;;18.43;100.00;99608.09;7383312;19;20021;-77
2022/09/15 10:01:29;;;;;;;7.13;0.40;;;;;;;19.58;100.00;99608.16;7392613;19;20026;-79
2022/09/15 10:04:16;;;;;;;1.10;0.10;;;;;;;19.78;100.00;99603.91;7396230;19;20041;-79
2022/09/15 10:06:43;;;;;;;2.05;0.70;;;;;;;20.86;100.00;99608.91;7394240;19;20360;-79
2022/09/15 10:09:15;;;;;;;9.73;0.80;;;;;;;21.53;100.00;99599.44;7395463;19;20029;-79
2022/09/15 10:11:47;;;;;;;1.10;0.20;;;;;;;21.99;100.00;99597.63;7397158;19;20378;-80
2022/09/15 10:14:19;;;;;;;0.55;0.10;;;;;;;22.58;100.00;99596.28;7392379;19;20393;-80
2022/09/15 10:17:17;;;;;;;3.30;0.30;;;;;;;22.57;100.00;99594.75;7391427;19;20515;-80
2022/09/15 10:19:57;;;;;;;2.10;0.22;;;;;;;22.61;100.00;99600.84;7389656;19;20091;-80
2022/09/15 10:22:25;;;;;;;4.18;0.30;;;;;;;21.19;100.00;99598.84;7394176;19;20487;-80
2022/09/15 10:24:53;;;;;;;0.13;0.03;;;;;;;20.92;100.00;99603.13;7391520;19;20082;-79
2022/09/15 10:27:24;;;;;;;0.10;0.00;;;;;;;20.99;100.00;99600.34;7394443;19;20066;-80
2022/09/15 10:29:50;;;;;;;0.10;0.00;;;;;;;21.43;100.00;99592.00;7390172;19;20042;-80
2022/09/15 10:32:23;;;;;;;1.80;0.25;;;;;;;20.98;100.00;99604.50;7391827;19;20014;-80
2022/09/15 10:35:01;;;;;;;1.27;0.20;;;;;;;21.70;100.00;99598.97;7390006;19;20036;-80
2022/09/15 10:37:49;;;;;;;0.55;0.05;;;;;;;22.04;100.00;99588.19;7394040;19;20010;-80
2022/09/15 10:40:36;;;;;;;0.30;0.10;;;;;;;21.53;100.00;99595.84;7394483;19;20547;-78
2022/09/15 10:43:34;;;;;;;0.10;0.10;;;;;;;21.64;100.00;99604.78;7395983;19;20031;-78
2022/09/15 10:46:18;;;;;;;1.50;0.30;;;;;;;21.98;100.00;99601.78;7389847;19;20010;-77
2022/09/15 10:49:06;;;;;;;1.75;0.08;;;;;;;22.50;100.00;99601.16;7390811;19;20019;-78
2022/09/15 10:51:48;;;;;;;0.10;0.00;;;;;;;22.61;100.00;99600.09;7394289;19;20018;-78
2022/09/15 10:54:20;;;;;;;0.20;0.10;;;;;;;22.30;100.00;99599.25;7391683;19;20015;-78
2022/09/15 10:56:51;;;;;;;0.10;0.10;;;;;;;22.04;100.00;99608.03;7396565;19;20035;-78
2022/09/15 10:59:34;;;;;;;0.10;0.10;;;;;;;22.07;99.24;99609.75;7394138;19;20029;-78
2022/09/15 11:02:19;;;;;;;0.10;0.00;;;;;;;22.36;99.48;99608.34;7394462;19;20022;-78
2022/09/15 11:05:10;;;;;;;0.70;0.20;;;;;;;22.89;97.88;99610.53;7394863;19;20045;-78
2022/09/15 11:07:57;;;;;;;0.57;0.00;;;;;;;23.29;94.54;99605.78;7392708;19;20019;-77
2022/09/15 11:10:39;;;;;;;7.32;0.30;;;;;;;23.54;89.46;99615.25;7395796;19;20023;-77
2022/09/15 11:13:40;;;;;;;0.10;0.10;;;;;;;23.44;88.15;99613.56;7391344;19;20015;-78
2022/09/15 11:16:31;;;;;;;0.20;0.15;;;;;;;23.15;90.18;99618.69;7393957;19;20037;-77
2022/09/15 11:19:16;;;;;;;0.10;0.10;;;;;;;22.96;91.00;99606.94;7391751;19;20022;-77
2022/09/15 11:21:56;;;;;;;0.10;0.10;;;;;;;22.98;89.48;99610.72;7393596;19;20018;-78
2022/09/15 11:24:54;;;;;;;0.10;0.00;;;;;;;23.37;89.23;99617.94;7393950;19;20361;-77
2022/09/15 11:27:27;;;;;;;0.10;0.10;;;;;;;23.61;86.04;99628.69;7392841;19;20413;-78
2022/09/15 11:30:21;;;;;;;0.30;0.30;;;;;;;23.57;83.68;99614.13;7390785;19;20534;-78
2022/09/15 11:33:04;;;;;;;1.45;0.00;;;;;;;23.18;82.40;99626.06;7391948;19;20069;-78
2022/09/15 11:35:33;;;;;;;0.68;0.03;;;;;;;23.17;87.00;99621.72;7390174;19;20029;-77
2022/09/15 11:38:46;;;;;;;0.20;0.10;;;;;;;23.19;88.10;99628.38;7388989;19;20029;-78
2022/09/15 11:41:43;;;;;;;0.10;0.00;;;;;;;22.82;89.58;99623.41;7387576;19;20074;-78
2022/09/15 11:44:32;;;;;;;1.10;0.10;;;;;;;22.57;91.92;99623.16;7389206;19;20034;-78
2022/09/15 11:47:17;;;;;;;2.42;0.10;;;;;;;22.17;90.18;99624.94;7388889;19;20373;-78
2022/09/15 11:49:54;;;;;;;0.13;0.13;;;;;;;22.19;92.79;99622.28;7386390;19;20019;-76
2022/09/15 11:52:36;;;;;;;0.30;0.30;;;;;;;22.41;92.20;99627.28;7392297;19;20018;-76